createdAt,value
2018-05-08T00:02:21.866Z,17.30
2018-05-08T00:04:50.214Z,17.50
2018-05-08T00:07:19.265Z,17.40
2018-05-08T00:09:47.558Z,17.40
2018-05-08T00:12:15.838Z,17.40
2018-05-08T00:14:44.084Z,17.40
2018-05-08T00:17:12.349Z,17.50
2018-05-08T00:19:40.618Z,17.60
2018-05-08T00:22:08.881Z,17.60
2018-05-08T00:24:37.913Z,17.20
2018-05-08T00:27:06.157Z,17.20
2018-05-08T00:29:35.175Z,17.00
2018-05-08T00:32:03.424Z,16.90
2018-05-08T00:34:32.460Z,17.00
2018-05-08T00:37:00.706Z,17.00
2018-05-08T00:39:28.973Z,17.10
2018-05-08T00:41:58.123Z,17.20
2018-05-08T00:44:26.390Z,17.20
2018-05-08T00:46:54.727Z,17.10
2018-05-08T00:49:23.794Z,16.80
2018-05-08T00:51:52.808Z,16.80
2018-05-08T00:54:32.998Z,16.80
2018-05-08T00:57:01.251Z,17.00
2018-05-08T00:59:29.549Z,17.00
2018-05-08T01:01:57.839Z,17.00
2018-05-08T01:04:26.081Z,17.00
2018-05-08T01:06:54.363Z,16.90
2018-05-08T01:09:22.613Z,16.90
2018-05-08T01:11:50.911Z,16.70
2018-05-08T01:14:19.152Z,16.70
2018-05-08T01:16:47.427Z,16.60
2018-05-08T01:19:15.695Z,16.50
2018-05-08T01:21:44.060Z,16.70
2018-05-08T01:24:12.314Z,16.80
2018-05-08T01:26:40.613Z,16.80
2018-05-08T01:29:08.872Z,16.70
2018-05-08T01:31:37.162Z,16.50
2018-05-08T01:34:05.542Z,16.60
2018-05-08T01:36:33.789Z,16.70
2018-05-08T01:39:02.047Z,16.70
2018-05-08T01:41:30.311Z,16.70
2018-05-08T01:43:59.346Z,16.80
2018-05-08T01:46:27.600Z,16.80
2018-05-08T01:48:55.869Z,16.50
2018-05-08T01:51:24.123Z,16.60
2018-05-08T01:53:53.152Z,16.70
2018-05-08T01:56:21.396Z,16.60
2018-05-08T01:58:50.421Z,16.70
2018-05-08T02:01:18.684Z,16.70
2018-05-08T02:03:46.934Z,16.70
2018-05-08T02:06:15.958Z,16.70
2018-05-08T02:08:44.207Z,16.60
2018-05-08T02:11:13.267Z,16.70
2018-05-08T02:13:41.501Z,16.70
2018-05-08T02:16:09.758Z,16.70
2018-05-08T02:18:38.796Z,16.50
2018-05-08T02:21:07.035Z,16.50
2018-05-08T02:23:36.063Z,16.50
2018-05-08T02:26:04.324Z,16.50
2018-05-08T02:28:32.585Z,16.50
2018-05-08T02:31:00.849Z,16.40
2018-05-08T02:33:29.142Z,16.40
2018-05-08T02:35:58.167Z,16.50
2018-05-08T02:38:26.434Z,16.50
2018-05-08T02:40:54.683Z,16.60
2018-05-08T02:43:22.950Z,16.50
2018-05-08T02:45:51.969Z,16.40
2018-05-08T02:48:20.232Z,16.40
2018-05-08T02:50:48.513Z,16.30
2018-05-08T02:53:16.772Z,16.40
2018-05-08T02:55:45.796Z,16.00
2018-05-08T02:58:14.066Z,16.00
2018-05-08T03:00:42.500Z,15.90
2018-05-08T03:03:10.742Z,16.00
2018-05-08T03:05:39.036Z,16.00
2018-05-08T03:08:07.285Z,16.20
2018-05-08T03:10:35.573Z,16.20
2018-05-08T03:13:03.827Z,16.20
2018-05-08T03:15:32.093Z,16.20
2018-05-08T03:18:00.335Z,16.20
2018-05-08T03:20:28.606Z,16.20
2018-05-08T03:22:56.864Z,16.20
2018-05-08T03:25:25.144Z,16.10
2018-05-08T03:27:53.413Z,16.10
2018-05-08T03:30:21.649Z,16.20
2018-05-08T03:32:49.937Z,16.20
2018-05-08T03:35:18.200Z,15.80
2018-05-08T03:37:46.462Z,15.90
2018-05-08T03:40:15.478Z,15.90
2018-05-08T03:42:43.750Z,15.90
2018-05-08T03:45:12.002Z,15.70
2018-05-08T03:47:41.014Z,15.80
2018-05-08T03:50:09.275Z,15.70
2018-05-08T03:52:38.283Z,15.90
2018-05-08T03:55:07.303Z,15.80
2018-05-08T03:57:35.553Z,15.80
2018-05-08T04:00:03.830Z,15.80
2018-05-08T04:02:44.024Z,15.50
2018-05-08T04:05:24.353Z,15.50
2018-05-08T04:08:04.474Z,15.30
2018-05-08T04:10:33.498Z,15.40
2018-05-08T04:13:01.746Z,15.40
2018-05-08T04:15:30.892Z,15.50
2018-05-08T04:17:59.062Z,15.50
2018-05-08T04:20:27.323Z,15.60
2018-05-08T04:22:55.590Z,15.60
2018-05-08T04:25:24.592Z,15.50
2018-05-08T04:27:52.860Z,15.50
2018-05-08T04:30:21.869Z,15.70
2018-05-08T04:32:50.184Z,15.60
2018-05-08T04:35:18.444Z,15.70
2018-05-08T04:37:46.707Z,15.80
2018-05-08T04:40:14.975Z,15.80
2018-05-08T04:42:43.281Z,15.90
2018-05-08T04:45:11.535Z,15.70
2018-05-08T04:47:39.813Z,15.70
2018-05-08T04:50:08.091Z,15.70
2018-05-08T04:52:36.353Z,15.60
2018-05-08T04:55:04.626Z,15.70
2018-05-08T04:57:32.913Z,15.80
2018-05-08T05:00:01.182Z,15.80
2018-05-08T05:02:29.430Z,15.90
2018-05-08T05:04:58.463Z,15.80
2018-05-08T05:07:26.727Z,15.80
2018-05-08T05:09:55.019Z,15.90
2018-05-08T05:12:23.283Z,15.90
2018-05-08T05:14:51.643Z,15.90
2018-05-08T05:17:19.980Z,15.90
2018-05-08T05:19:48.261Z,15.90
2018-05-08T05:22:16.519Z,16.00
2018-05-08T05:24:44.783Z,15.80
2018-05-08T05:27:13.075Z,15.70
2018-05-08T05:29:41.358Z,15.50
2018-05-08T05:32:09.596Z,15.60
2018-05-08T05:34:37.885Z,15.60
2018-05-08T05:37:06.117Z,15.80
2018-05-08T05:39:35.143Z,15.90
2018-05-08T05:42:03.406Z,15.90
2018-05-08T05:44:31.661Z,16.00
2018-05-08T05:47:00.718Z,16.10
2018-05-08T05:49:28.969Z,16.10
2018-05-08T05:51:57.234Z,16.20
2018-05-08T05:54:25.522Z,16.10
2018-05-08T05:56:53.842Z,16.10
2018-05-08T05:59:22.085Z,16.20
2018-05-08T06:01:50.361Z,16.10
2018-05-08T06:04:18.607Z,15.80
2018-05-08T06:06:46.872Z,15.80
2018-05-08T06:09:15.127Z,15.70
2018-05-08T06:11:43.565Z,15.90
2018-05-08T06:14:11.757Z,16.10
2018-05-08T06:16:39.998Z,16.30
2018-05-08T06:19:08.254Z,16.40
2018-05-08T06:21:37.276Z,17.20
2018-05-08T06:24:05.557Z,17.20
2018-05-08T06:26:33.855Z,18.00
2018-05-08T06:29:02.807Z,20.50
2018-05-08T06:31:31.061Z,20.50
2018-05-08T06:34:01.045Z,24.40
2018-05-08T06:36:29.325Z,24.30
2018-05-08T06:38:57.592Z,24.90
2018-05-08T06:41:25.874Z,24.70
2018-05-08T06:43:54.140Z,25.10
2018-05-08T06:46:22.408Z,26.80
2018-05-08T06:48:50.665Z,28.60
2018-05-08T06:51:18.935Z,30.90
2018-05-08T06:53:47.245Z,32.50
2018-05-08T06:56:15.507Z,33.40
2018-05-08T06:58:43.766Z,33.50
2018-05-08T07:01:12.762Z,35.00
2018-05-08T07:03:43.079Z,35.30
2018-05-08T07:06:11.367Z,35.10
2018-05-08T07:08:39.616Z,35.90
2018-05-08T07:11:07.996Z,36.00
2018-05-08T07:13:37.033Z,37.00
2018-05-08T07:16:05.414Z,37.00
2018-05-08T07:18:33.559Z,36.30
2018-05-08T07:21:01.826Z,34.30
2018-05-08T07:23:30.107Z,34.40
2018-05-08T07:25:58.369Z,35.20
2018-05-08T07:28:27.391Z,37.30
2018-05-08T07:30:55.697Z,37.20
2018-05-08T07:33:23.930Z,38.00
2018-05-08T07:35:52.198Z,38.70
2018-05-08T07:38:20.542Z,37.90
2018-05-08T07:40:49.526Z,37.70
2018-05-08T07:43:18.550Z,38.40
2018-05-08T07:45:47.600Z,37.80
2018-05-08T07:48:15.855Z,37.70
2018-05-08T07:50:44.108Z,37.40
2018-05-08T07:53:12.355Z,38.00
2018-05-08T07:55:40.630Z,38.70
2018-05-08T07:58:08.890Z,38.90
2018-05-08T08:00:37.154Z,38.90
2018-05-08T08:03:05.421Z,38.40
2018-05-08T08:05:33.683Z,38.50
2018-05-08T08:08:01.959Z,38.90
2018-05-08T08:10:30.245Z,38.90
2018-05-08T08:12:58.550Z,39.20
2018-05-08T08:15:26.795Z,39.20
2018-05-08T08:17:55.204Z,39.10
2018-05-08T08:20:23.449Z,39.50
2018-05-08T08:22:51.718Z,38.50
2018-05-08T08:25:20.018Z,37.90
2018-05-08T08:27:48.319Z,37.80
2018-05-08T08:30:16.567Z,37.30
2018-05-08T08:32:45.603Z,37.00
2018-05-08T08:35:14.668Z,37.50
2018-05-08T08:37:42.932Z,37.50
2018-05-08T08:40:11.191Z,36.90
2018-05-08T08:42:39.440Z,35.70
2018-05-08T08:45:08.493Z,35.30
2018-05-08T08:47:36.807Z,35.30
2018-05-08T08:50:05.043Z,33.20
2018-05-08T08:52:33.322Z,29.80
2018-05-08T08:55:01.591Z,27.90
2018-05-08T08:57:29.841Z,27.00
2018-05-08T08:59:58.116Z,26.70
2018-05-08T09:02:26.362Z,26.30
2018-05-08T09:04:55.505Z,26.10
2018-05-08T09:07:23.756Z,26.00
2018-05-08T09:09:52.059Z,25.80
2018-05-08T09:12:20.353Z,25.60
2018-05-08T09:14:49.355Z,25.00
2018-05-08T09:17:17.619Z,25.00
2018-05-08T09:19:45.921Z,25.10
2018-05-08T09:22:14.171Z,25.20
2018-05-08T09:24:42.419Z,24.90
2018-05-08T09:27:10.695Z,24.90
2018-05-08T09:29:38.987Z,24.80
2018-05-08T09:32:07.248Z,24.80
2018-05-08T09:34:35.478Z,24.90
2018-05-08T09:37:03.733Z,25.00
2018-05-08T09:39:31.980Z,25.10
2018-05-08T09:42:00.246Z,25.10
2018-05-08T09:44:28.491Z,25.30
2018-05-08T09:46:56.772Z,25.20
2018-05-08T09:49:25.805Z,25.00
2018-05-08T09:51:54.144Z,25.00
2018-05-08T09:54:22.407Z,25.00
2018-05-08T09:56:50.653Z,25.00
2018-05-08T09:59:18.921Z,25.20
2018-05-08T10:01:47.206Z,25.20
2018-05-08T10:04:15.453Z,25.10
2018-05-08T10:06:43.801Z,25.00
2018-05-08T10:09:11.980Z,25.20
2018-05-08T10:11:41.015Z,25.00
2018-05-08T10:14:09.275Z,25.00
2018-05-08T10:16:37.611Z,25.10
2018-05-08T10:19:05.806Z,25.10
2018-05-08T10:21:34.090Z,25.20
2018-05-08T10:24:02.423Z,25.10
2018-05-08T10:26:30.758Z,25.00
2018-05-08T10:28:59.096Z,24.90
2018-05-08T10:31:28.119Z,24.90
2018-05-08T10:33:56.386Z,24.90
2018-05-08T10:36:24.642Z,25.00
2018-05-08T10:38:52.881Z,25.20
2018-05-08T10:41:21.269Z,25.00
2018-05-08T10:43:49.545Z,24.90
2018-05-08T10:46:17.782Z,24.80
2018-05-08T10:48:46.587Z,24.90
2018-05-08T10:51:14.839Z,25.10
2018-05-08T10:53:43.239Z,25.00
2018-05-08T10:56:11.727Z,25.00
2018-05-08T10:58:39.995Z,25.00
2018-05-08T11:01:08.253Z,25.10
2018-05-08T11:03:36.538Z,25.40
2018-05-08T11:06:04.796Z,25.50
2018-05-08T11:08:33.087Z,25.50
2018-05-08T11:11:01.476Z,25.60
2018-05-08T11:13:29.729Z,25.80
2018-05-08T11:15:57.992Z,25.80
2018-05-08T11:18:27.365Z,25.50
2018-05-08T11:20:55.947Z,25.50
2018-05-08T11:23:24.978Z,25.60
2018-05-08T11:25:53.987Z,25.80
2018-05-08T11:28:22.272Z,25.80
2018-05-08T11:30:50.617Z,26.00
2018-05-08T11:33:19.635Z,26.00
2018-05-08T11:35:47.932Z,26.00
2018-05-08T11:38:16.234Z,25.90
2018-05-08T11:40:44.469Z,25.70
2018-05-08T11:43:12.768Z,25.60
2018-05-08T11:45:41.027Z,25.50
2018-05-08T11:48:09.300Z,25.50
2018-05-08T11:50:37.606Z,25.60
2018-05-08T11:53:05.884Z,25.70
2018-05-08T11:55:34.167Z,25.80
2018-05-08T11:58:03.003Z,25.80
2018-05-08T12:00:31.319Z,25.80
2018-05-08T12:02:59.564Z,25.80
2018-05-08T12:05:27.855Z,25.80
2018-05-08T12:07:56.113Z,25.80
2018-05-08T12:10:24.381Z,25.80
2018-05-08T12:12:53.408Z,25.90
2018-05-08T12:15:21.755Z,25.90
2018-05-08T12:17:50.087Z,25.70
2018-05-08T12:20:18.322Z,25.80
2018-05-08T12:22:46.802Z,25.90
2018-05-08T12:25:15.082Z,26.00
2018-05-08T12:27:43.330Z,26.10
2018-05-08T12:30:12.354Z,26.10
2018-05-08T12:32:40.669Z,26.10
2018-05-08T12:35:09.075Z,26.00
2018-05-08T12:37:38.170Z,26.10
2018-05-08T12:40:07.232Z,26.10
2018-05-08T12:42:35.511Z,26.10
2018-05-08T12:45:03.770Z,26.30
2018-05-08T12:47:32.019Z,26.50
2018-05-08T12:50:01.213Z,26.50
2018-05-08T12:52:29.503Z,26.60
2018-05-08T12:54:59.062Z,26.50
2018-05-08T12:57:27.295Z,26.40
2018-05-08T12:59:55.601Z,26.30
2018-05-08T13:02:23.875Z,26.20
2018-05-08T13:04:52.127Z,26.20
2018-05-08T13:07:20.419Z,26.20
2018-05-08T13:09:48.671Z,26.40
2018-05-08T13:12:16.952Z,26.40
2018-05-08T13:14:45.215Z,26.40
2018-05-08T13:17:13.526Z,26.40
2018-05-08T13:19:41.778Z,26.50
2018-05-08T13:22:10.073Z,26.50
2018-05-08T13:24:38.317Z,26.50
2018-05-08T13:27:06.578Z,26.40
2018-05-08T13:29:35.584Z,26.30
2018-05-08T13:32:03.891Z,26.30
2018-05-08T13:34:32.182Z,26.30
2018-05-08T13:37:01.260Z,26.30
2018-05-08T13:39:29.528Z,26.30
2018-05-08T13:41:57.877Z,26.40
2018-05-08T13:44:26.058Z,26.30
2018-05-08T13:46:54.313Z,26.30
2018-05-08T13:49:23.346Z,26.40
2018-05-08T13:51:51.621Z,26.30
2018-05-08T13:54:20.678Z,26.30
2018-05-08T13:56:49.733Z,26.30
2018-05-08T13:59:18.007Z,26.40
2018-05-08T14:01:46.310Z,26.40
2018-05-08T14:04:14.567Z,26.50
2018-05-08T14:06:42.927Z,26.60
2018-05-08T14:09:11.176Z,26.60
2018-05-08T14:11:39.452Z,26.50
2018-05-08T14:14:08.492Z,26.50
2018-05-08T14:16:36.772Z,26.50
2018-05-08T14:19:05.034Z,26.60
2018-05-08T14:21:33.302Z,26.60
2018-05-08T14:24:01.599Z,26.40
2018-05-08T14:26:29.859Z,26.40
2018-05-08T14:28:58.117Z,26.30
2018-05-08T14:31:26.523Z,26.30
2018-05-08T14:33:54.796Z,26.30
2018-05-08T14:36:23.063Z,26.20
2018-05-08T14:38:52.039Z,26.20
2018-05-08T14:41:20.387Z,26.20
2018-05-08T14:43:48.728Z,26.20
2018-05-08T14:46:16.984Z,26.20
2018-05-08T14:48:45.298Z,26.20
2018-05-08T14:51:14.526Z,26.20
2018-05-08T14:53:43.549Z,26.10
2018-05-08T14:56:11.810Z,26.10
2018-05-08T14:58:40.131Z,26.10
2018-05-08T15:01:08.418Z,26.10
2018-05-08T15:03:36.692Z,26.10
2018-05-08T15:06:05.791Z,26.10
2018-05-08T15:08:34.046Z,26.10
2018-05-08T15:11:02.293Z,26.00
2018-05-08T15:13:30.709Z,26.10
2018-05-08T15:15:58.947Z,26.10
2018-05-08T15:18:27.244Z,26.10
2018-05-08T15:20:55.527Z,26.10
2018-05-08T15:23:23.788Z,26.10
2018-05-08T15:25:52.094Z,26.10
2018-05-08T15:28:20.395Z,26.10
2018-05-08T15:30:48.670Z,26.00
2018-05-08T15:33:16.932Z,26.00
2018-05-08T15:35:45.230Z,25.90
2018-05-08T15:38:14.293Z,26.00
2018-05-08T15:40:42.642Z,26.00
2018-05-08T15:43:10.911Z,26.00
2018-05-08T15:45:39.187Z,26.00
2018-05-08T15:48:07.510Z,25.90
2018-05-08T15:50:35.767Z,25.90
2018-05-08T15:53:04.083Z,25.90
2018-05-08T15:55:33.116Z,25.80
2018-05-08T15:58:01.394Z,25.80
2018-05-08T16:00:29.664Z,25.70
2018-05-08T16:02:57.934Z,25.70
2018-05-08T16:05:26.219Z,25.60
2018-05-08T16:07:54.579Z,25.70
2018-05-08T16:10:23.635Z,25.70
2018-05-08T16:12:51.906Z,25.60
2018-05-08T16:15:20.204Z,25.70
2018-05-08T16:17:49.376Z,25.50
2018-05-08T16:20:17.619Z,25.50
2018-05-08T16:22:46.497Z,25.50
2018-05-08T16:25:14.835Z,25.50
2018-05-08T16:27:43.223Z,25.50
2018-05-08T16:30:12.485Z,25.40
2018-05-08T16:32:41.510Z,25.50
2018-05-08T16:35:09.780Z,25.40
2018-05-08T16:37:38.638Z,25.40
2018-05-08T16:40:07.035Z,25.40
2018-05-08T16:42:35.365Z,25.30
2018-05-08T16:45:03.672Z,25.30
2018-05-08T16:47:31.961Z,25.30
2018-05-08T16:50:00.256Z,25.20
2018-05-08T16:52:28.518Z,25.30
2018-05-08T16:54:56.799Z,25.20
2018-05-08T16:57:25.104Z,25.20
2018-05-08T16:59:53.507Z,25.10
2018-05-08T17:02:22.552Z,25.00
2018-05-08T17:04:51.150Z,25.00
2018-05-08T17:07:19.374Z,25.10
2018-05-08T17:09:47.723Z,25.10
2018-05-08T17:12:16.800Z,25.00
2018-05-08T17:14:45.044Z,25.00
2018-05-08T17:17:13.331Z,25.00
2018-05-08T17:19:41.589Z,25.00
2018-05-08T17:22:09.876Z,25.00
2018-05-08T17:24:38.225Z,25.00
2018-05-08T17:27:06.701Z,25.00
2018-05-08T17:29:34.972Z,24.90
2018-05-08T17:32:03.259Z,24.80
2018-05-08T17:34:31.558Z,24.80
2018-05-08T17:36:59.945Z,24.70
2018-05-08T17:39:28.288Z,24.80
2018-05-08T17:41:56.582Z,24.80
2018-05-08T17:44:25.104Z,24.70
2018-05-08T17:46:53.391Z,24.60
2018-05-08T17:49:21.749Z,24.60
2018-05-08T17:51:50.040Z,24.50
2018-05-08T17:54:19.062Z,24.40
2018-05-08T17:56:48.122Z,24.30
2018-05-08T17:59:16.456Z,24.30
2018-05-08T18:01:44.735Z,24.30
2018-05-08T18:04:13.185Z,24.30
2018-05-08T18:06:41.396Z,24.30
2018-05-08T18:09:09.672Z,24.30
2018-05-08T18:11:38.040Z,24.20
2018-05-08T18:14:06.336Z,24.10
2018-05-08T18:16:34.695Z,24.00
2018-05-08T18:19:02.953Z,24.00
2018-05-08T18:21:31.206Z,24.00
2018-05-08T18:24:00.255Z,23.90
2018-05-08T18:26:28.547Z,23.80
2018-05-08T18:28:57.591Z,23.80
2018-05-08T18:31:26.842Z,23.80
2018-05-08T18:33:55.091Z,23.70
2018-05-08T18:36:23.335Z,23.80
2018-05-08T18:38:52.454Z,23.70
2018-05-08T18:41:20.741Z,23.70
2018-05-08T18:43:49.017Z,23.50
2018-05-08T18:46:18.477Z,23.50
2018-05-08T18:48:46.719Z,23.40
2018-05-08T18:51:15.094Z,23.30
2018-05-08T18:53:44.130Z,23.20
2018-05-08T18:56:13.200Z,23.20
2018-05-08T18:58:41.602Z,23.20
2018-05-08T19:01:10.704Z,23.10
2018-05-08T19:03:39.289Z,23.10
2018-05-08T19:06:07.513Z,23.10
2018-05-08T19:08:36.778Z,23.00
2018-05-08T19:11:10.810Z,23.00
2018-05-08T19:13:39.188Z,22.90
2018-05-08T19:16:07.494Z,22.90
2018-05-08T19:18:41.352Z,22.80
2018-05-08T19:21:10.559Z,22.70
2018-05-08T19:23:38.849Z,22.70
2018-05-08T19:26:07.134Z,22.60
2018-05-08T19:28:41.114Z,22.70
2018-05-08T19:31:09.416Z,22.60
2018-05-08T19:33:37.702Z,22.60
2018-05-08T19:36:11.791Z,22.40
2018-05-08T19:38:40.067Z,22.40
2018-05-08T19:41:08.334Z,22.30
2018-05-08T19:43:36.596Z,22.20
2018-05-08T19:46:04.944Z,22.20
2018-05-08T19:48:33.306Z,22.10
2018-05-08T19:51:01.587Z,22.10
2018-05-08T19:53:29.878Z,22.00
2018-05-08T19:55:58.132Z,22.00
2018-05-08T19:58:26.422Z,21.90
2018-05-08T20:00:54.682Z,21.90
2018-05-08T20:03:22.971Z,21.80
2018-05-08T20:05:51.226Z,21.70
2018-05-08T20:08:19.531Z,21.80
2018-05-08T20:10:47.822Z,21.70
2018-05-08T20:13:16.881Z,21.70
2018-05-08T20:15:45.158Z,21.70
2018-05-08T20:18:13.419Z,21.60
2018-05-08T20:20:41.683Z,21.60
2018-05-08T20:23:10.559Z,21.50
2018-05-08T20:25:38.853Z,21.50
2018-05-08T20:28:07.116Z,21.40
2018-05-08T20:30:35.476Z,21.30
2018-05-08T20:33:03.690Z,21.30
2018-05-08T20:35:31.981Z,21.20
2018-05-08T20:38:00.257Z,21.10
2018-05-08T20:40:28.674Z,21.10
2018-05-08T20:42:56.959Z,21.00
2018-05-08T20:45:25.993Z,21.00
2018-05-08T20:47:54.269Z,20.90
2018-05-08T20:50:22.556Z,20.80
2018-05-08T20:52:50.842Z,20.80
2018-05-08T20:55:19.321Z,20.80
2018-05-08T20:57:47.590Z,20.60
2018-05-08T21:00:15.852Z,20.50
2018-05-08T21:02:44.131Z,20.50
2018-05-08T21:05:12.389Z,20.50
2018-05-08T21:07:40.699Z,20.60
2018-05-08T21:10:08.986Z,20.70
2018-05-08T21:12:37.235Z,20.70
2018-05-08T21:15:05.509Z,20.70
2018-05-08T21:17:33.816Z,20.60
2018-05-08T21:20:02.103Z,20.60
2018-05-08T21:22:31.412Z,20.60
2018-05-08T21:24:59.707Z,20.60
2018-05-08T21:27:34.524Z,20.50
2018-05-08T21:30:20.594Z,20.50
2018-05-08T21:32:48.958Z,20.50
2018-05-08T21:35:17.232Z,20.50
2018-05-08T21:37:45.497Z,20.40
2018-05-08T21:40:13.786Z,20.30
2018-05-08T21:42:42.040Z,20.30
2018-05-08T21:45:10.313Z,20.40
2018-05-08T21:47:38.556Z,20.40
2018-05-08T21:50:07.620Z,20.50
2018-05-08T21:52:35.891Z,20.50
2018-05-08T21:55:04.187Z,20.50
2018-05-08T21:57:32.510Z,20.40
2018-05-08T22:00:00.757Z,20.40
2018-05-08T22:02:29.006Z,20.30
2018-05-08T22:04:58.200Z,20.20
2018-05-08T22:07:26.719Z,20.20
2018-05-08T22:09:54.950Z,20.20
2018-05-08T22:12:23.506Z,20.30
2018-05-08T22:14:51.774Z,20.30
2018-05-08T22:17:20.035Z,20.30
2018-05-08T22:19:49.069Z,20.10
2018-05-08T22:22:17.340Z,20.00
2018-05-08T22:24:45.595Z,20.00
2018-05-08T22:27:13.850Z,20.10
2018-05-08T22:29:42.950Z,19.90
2018-05-08T22:32:11.256Z,19.90
2018-05-08T22:34:39.586Z,19.70
2018-05-08T22:37:07.849Z,19.90
2018-05-08T22:39:36.110Z,19.90
2018-05-08T22:42:04.606Z,19.90
2018-05-08T22:44:32.877Z,19.90
2018-05-08T22:47:01.149Z,19.90
2018-05-08T22:49:29.498Z,19.90
2018-05-08T22:51:57.811Z,19.80
2018-05-08T22:54:26.092Z,19.80
2018-05-08T22:56:54.348Z,19.80
2018-05-08T22:59:22.599Z,19.80
2018-05-08T23:01:50.885Z,19.70
2018-05-08T23:04:19.415Z,19.70
2018-05-08T23:06:48.463Z,19.60
2018-05-08T23:09:16.866Z,19.60
2018-05-08T23:11:45.271Z,19.50
2018-05-08T23:14:13.536Z,19.60
2018-05-08T23:16:41.846Z,19.50
2018-05-08T23:19:10.869Z,18.80
2018-05-08T23:21:39.131Z,18.80
2018-05-08T23:24:07.386Z,19.00
2018-05-08T23:26:36.627Z,18.90
2018-05-08T23:29:04.920Z,18.90
2018-05-08T23:31:33.336Z,18.60
2018-05-08T23:34:01.581Z,18.60
2018-05-08T23:36:29.825Z,18.80
2018-05-08T23:38:58.084Z,18.90
2018-05-08T23:41:26.349Z,18.90
2018-05-08T23:43:54.627Z,19.00
2018-05-08T23:46:22.895Z,18.90
2018-05-08T23:48:51.899Z,19.00
2018-05-08T23:51:20.167Z,19.00
2018-05-08T23:53:49.211Z,19.10
2018-05-08T23:56:17.467Z,19.10
2018-05-08T23:58:45.717Z,19.10
